Sunflower Hakata — JL6711 — position and weather

sailwx.info

Track history (hours):
 
Tides and Currents Weather Stations Pressure Air Temp Water Temp Dewpoint Dewpoint Depression Visibility Wind Speed Wind Dir Waves Ship Positions

Sunflower Hakata

Last reported at 2018-Feb-23 03:00 UTC. Time now 2018-Feb-23 03:12 UTC.
Position N 34°35' E 135°03'.

Length 167 m; draft 6.6 m.

Type: Cargo ship. MMSI: 431501764.

Date/timePositionNaut miles runAvg speedWind from/ knotsBaromVisibWave heightAir tempDewpointWater temp
2018-Feb-23 03:00N 34°35' E 135°03'918.6
2018-Feb-23 02:30N 34°34' E 134°52'1121.5
2018-Feb-23 02:00N 34°33' E 134°39'1122.0
2018-Feb-23 01:30N 34°35' E 134°26'1121.7
2018-Feb-23 00:59N 34°33' E 134°12'1019.1
2018-Feb-23 00:28N 34°30' E 134°01'3 0.9
2018-Feb-22 21:33N 34°31' E 133°58'0 0.0
2018-Feb-22 21:21N 34°31' E 133°58'5 9.0
2018-Feb-22 20:46N 34°26' E 133°55'518.1
2018-Feb-22 20:28N 34°23' E 133°50'1019.9
2018-Feb-22 19:58N 34°18' E 133°40'3518.3
2018-Feb-22 18:03N 34°09' E 132°58'817.5
2018-Feb-22 17:34N 34°05' E 132°49'122.4
2018-Feb-22 17:30N 34°04' E 132°49'1122.7
2018-Feb-22 17:00N 33°55' E 132°40'1222.5
2018-Feb-22 16:28N 33°48' E 132°29'1022.2
2018-Feb-22 16:01N 33°44' E 132°18'1321.9
2018-Feb-22 15:24N 33°42' E 132°02'921.8
2018-Feb-22 15:01N 33°44' E 131°52'1121.6
2018-Feb-22 14:30N 33°46' E 131°39'1121.4
2018-Feb-22 14:00N 33°48' E 131°26'1121.5
2018-Feb-22 13:30N 33°51' E 131°14'918.6
2018-Feb-22 13:00N 33°56' E 131°04'612.8
2018-Feb-22 12:31N 33°56' E 130°56'4 7.4
2018-Feb-22 12:01N 33°58' E 130°53'1019.5
2018-Feb-22 11:31N 34°02' E 130°42'1122.1
2018-Feb-22 11:01N 33°58' E 130°29'1120.8
2018-Feb-22 10:29N 33°51' E 130°19'1021.2
2018-Feb-22 10:00N 33°42' E 130°15'816.2
2018-Feb-22 09:31N 33°37' E 130°23'1 1.7
2018-Feb-22 09:00N 33°38' E 130°24'0 0.0
2018-Feb-22 08:30N 33°38' E 130°24'0 0.0
2018-Feb-22 08:00N 33°38' E 130°24'0 0.0
2018-Feb-22 07:30N 33°38' E 130°24'0 0.0
2018-Feb-22 07:00N 33°38' E 130°24'0 0.0
2018-Feb-22 06:30N 33°38' E 130°24'0 0.0
2018-Feb-22 06:00N 33°38' E 130°24'0 0.0
2018-Feb-22 05:30N 33°38' E 130°24'0 0.0
2018-Feb-22 05:00N 33°38' E 130°24'0 0.0
2018-Feb-22 04:30N 33°38' E 130°24'0 0.0
2018-Feb-22 04:00N 33°38' E 130°24'0 0.0
2018-Feb-22 03:30N 33°38' E 130°24'0 0.0
2018-Feb-22 02:57N 33°38' E 130°24'0 0.0
2018-Feb-22 02:30N 33°38' E 130°24'0 0.0
2018-Feb-22 02:00N 33°38' E 130°24'0 0.0
2018-Feb-22 01:30N 33°38' E 130°24'0 0.0
2018-Feb-22 01:00N 33°38' E 130°24'0 0.0
2018-Feb-22 00:30N 33°38' E 130°24'0 0.0
2018-Feb-22 00:00N 33°38' E 130°24'0 0.0
2018-Feb-21 23:30N 33°38' E 130°24'0 0.0
2018-Feb-21 23:00N 33°38' E 130°24'0 0.0
2018-Feb-21 22:30N 33°38' E 130°24'0 0.0
2018-Feb-21 22:00N 33°38' E 130°24'0 0.0
2018-Feb-21 21:31N 33°38' E 130°24'0 0.0
2018-Feb-21 21:00N 33°38' E 130°24'0 0.0
2018-Feb-21 20:30N 33°38' E 130°24'1 2.1
2018-Feb-21 20:00N 33°37' E 130°23'815.9
2018-Feb-21 19:30N 33°42' E 130°16'1019.9
2018-Feb-21 19:00N 33°51' E 130°20'918.7
2018-Feb-21 18:30N 33°58' E 130°28'1019.9
2018-Feb-21 18:00N 34°01' E 130°39'918.7
2018-Feb-21 17:30N 34°02' E 130°50'713.3
2018-Feb-21 17:00N 33°55' E 130°53'611.1
2018-Feb-21 16:30N 33°59' E 130°59'815.9
2018-Feb-21 16:00N 33°55' E 131°07'1019.2
2018-Feb-21 15:30N 33°51' E 131°18'1019.7
2018-Feb-21 15:00N 33°49' E 131°30'1019.7
2018-Feb-21 14:31N 33°47' E 131°41'1019.6
2018-Feb-21 14:00N 33°39' E 131°48'1020.2
2018-Feb-21 13:29N 33°30' E 131°54'1020.2
2018-Feb-21 13:00N 33°21' E 131°59'816.3
2018-Feb-21 12:30N 33°14' E 132°04'814.5
2018-Feb-21 11:59N 33°08' E 132°09'28617.0
2018-Feb-20 19:11N 34°15' E 137°44'521.0
2018-Feb-20 18:58N 34°16' E 137°49'1020.5
2018-Feb-20 18:29N 34°19' E 138°01'1019.7
2018-Feb-20 17:58N 34°22' E 138°13'818.4
2018-Feb-20 17:30N 34°24' E 138°23'918.3
2018-Feb-20 17:00N 34°26' E 138°33'1018.7
2018-Feb-20 16:28N 34°29' E 138°45'918.9
2018-Feb-20 15:59N 34°32' E 138°55'1019.3
2018-Feb-20 15:29N 34°39' E 139°04'1021.1
2018-Feb-20 14:59N 34°46' E 139°13'1121.4
2018-Feb-20 14:29N 34°53' E 139°23'1121.9
2018-Feb-20 14:01N 34°60' E 139°33'1121.3
2018-Feb-20 13:31N 35°06' E 139°43'816.7
2018-Feb-20 13:00N 35°14' E 139°46'612.8
2018-Feb-20 12:30N 35°20' E 139°43'918.3
2018-Feb-20 12:00N 35°28' E 139°48'816.5
2018-Feb-20 11:30N 35°36' E 139°50'2 1.7
2018-Feb-20 10:06N 35°37' E 139°48'0 0.0
2018-Feb-20 09:57N 35°37' E 139°48'0 0.0
2018-Feb-20 09:24N 35°37' E 139°48'0 0.0
2018-Feb-20 08:54N 35°37' E 139°48'0 0.0
2018-Feb-20 08:24N 35°37' E 139°48'0 0.0
2018-Feb-20 07:36N 35°37' E 139°48'0 0.0
2018-Feb-20 07:18N 35°37' E 139°48'0 0.0
2018-Feb-20 07:00N 35°37' E 139°48'0 0.0
2018-Feb-20 06:00N 35°37' E 139°48'0 0.0
2018-Feb-20 05:27N 35°37' E 139°48'0 0.0
2018-Feb-20 04:57N 35°37' E 139°48'0 0.0
2018-Feb-20 00:57N 35°37' E 139°48'0 0.0
2018-Feb-20 00:30N 35°37' E 139°48'0 0.0
2018-Feb-19 23:54N 35°37' E 139°48'0 0.0
2018-Feb-19 23:30N 35°37' E 139°48'0 0.3
2018-Feb-19 23:00N 35°37' E 139°48'0 0.0
2018-Feb-19 22:24N 35°37' E 139°48'0 0.0
2018-Feb-19 22:00N 35°37' E 139°48'0 0.0
2018-Feb-19 21:24N 35°37' E 139°48'0 0.0
2018-Feb-19 20:57N 35°37' E 139°48'0 0.0
2018-Feb-19 20:30N 35°37' E 139°48'0 0.0
2018-Feb-19 20:00N 35°37' E 139°48'0 0.0
2018-Feb-19 19:27N 35°37' E 139°48'0 0.0
2018-Feb-19 19:00N 35°37' E 139°48'0 0.0
2018-Feb-19 18:30N 35°37' E 139°48'0 0.0
2018-Feb-19 17:57N 35°37' E 139°48'0 0.0
2018-Feb-19 17:30N 35°37' E 139°48'0 0.0
2018-Feb-19 16:57N 35°37' E 139°48'0 0.0
2018-Feb-19 16:27N 35°37' E 139°48'0 0.0
2018-Feb-19 16:00N 35°37' E 139°48'0 0.0
2018-Feb-19 15:30N 35°37' E 139°48'0 0.0
2018-Feb-19 15:00N 35°37' E 139°48'0 0.0
2018-Feb-19 14:30N 35°37' E 139°48'0 0.0
2018-Feb-19 13:48N 35°37' E 139°48'0 0.0
2018-Feb-19 13:27N 35°37' E 139°48'0 0.0
2018-Feb-19 13:00N 35°37' E 139°48'0 0.0
2018-Feb-19 12:18N 35°37' E 139°48'0 0.0
2018-Feb-19 12:00N 35°37' E 139°48'0 0.0
2018-Feb-19 11:30N 35°37' E 139°48'0 0.0
2018-Feb-19 10:57N 35°37' E 139°48'0 0.0
2018-Feb-19 10:27N 35°37' E 139°48'0 0.0
2018-Feb-19 10:00N 35°37' E 139°48'0 0.0
2018-Feb-19 09:30N 35°37' E 139°48'0 0.0
2018-Feb-19 09:00N 35°37' E 139°48'0 0.0
2018-Feb-19 08:24N 35°37' E 139°48'0 0.0
2018-Feb-19 08:00N 35°37' E 139°48'0 0.0
2018-Feb-19 07:15N 35°37' E 139°48'0 0.0
2018-Feb-19 07:00N 35°37' E 139°48'0 0.0
2018-Feb-19 06:18N 35°37' E 139°48'0 0.0
2018-Feb-19 05:57N 35°37' E 139°48'0 0.0
2018-Feb-19 05:30N 35°37' E 139°48'0 0.0
2018-Feb-19 05:00N 35°37' E 139°48'0 0.0
2018-Feb-19 04:30N 35°37' E 139°48'0 0.0
2018-Feb-19 03:54N 35°37' E 139°48'0 0.0
2018-Feb-19 03:24N 35°37' E 139°48'0 0.0
2018-Feb-19 03:00N 35°37' E 139°48'0 0.0
2018-Feb-19 02:30N 35°37' E 139°48'0 0.0
2018-Feb-19 01:57N 35°37' E 139°48'0 0.0
2018-Feb-19 01:27N 35°37' E 139°48'0 0.0
2018-Feb-19 01:00N 35°37' E 139°48'0 0.0
2018-Feb-19 00:27N 35°37' E 139°48'0 0.0
2018-Feb-18 23:57N 35°37' E 139°48'0 0.0
2018-Feb-18 23:30N 35°37' E 139°48'0 0.0
2018-Feb-18 23:00N 35°37' E 139°48'0 0.0
2018-Feb-18 22:30N 35°37' E 139°48'0 0.0
2018-Feb-18 22:00N 35°37' E 139°48'0 0.0
2018-Feb-18 21:30N 35°37' E 139°48'0 0.0
2018-Feb-18 21:00N 35°37' E 139°48'0 0.0
2018-Feb-18 20:31N 35°37' E 139°48'1 2.4
2018-Feb-18 20:01N 35°37' E 139°49'816.3
2018-Feb-18 19:30N 35°29' E 139°51'816.3
2018-Feb-18 19:00N 35°22' E 139°45'612.0
2018-Feb-18 18:30N 35°16' E 139°46'816.1
2018-Feb-18 18:00N 35°08' E 139°47'1020.8
2018-Feb-18 17:30N 35°00' E 139°38'1121.3
2018-Feb-18 16:58N 34°54' E 139°27'1022.3
2018-Feb-18 16:30N 34°47' E 139°17'1222.8
2018-Feb-18 15:59N 34°39' E 139°07'1122.0
2018-Feb-18 15:29N 34°32' E 138°56'1122.7
2018-Feb-18 14:59N 34°29' E 138°43'1122.5
2018-Feb-18 14:30N 34°26' E 138°31'1223.0
2018-Feb-18 14:00N 34°23' E 138°17'1122.6
2018-Feb-18 13:30N 34°21' E 138°04'3821.8
2018-Feb-18 11:46N 34°13' E 137°19'2821.2
2018-Feb-18 10:26N 34°01' E 136°48'8018.8
2018-Feb-18 06:13N 33°36' E 135°17'522.4
2018-Feb-18 06:00N 33°40' E 135°13'1122.6
2018-Feb-18 05:30N 33°48' E 135°04'1122.1
2018-Feb-18 05:00N 33°58' E 134°58'1122.6
2018-Feb-18 04:30N 34°09' E 134°58'1122.1
2018-Feb-18 04:01N 34°20' E 134°59'1121.8
2018-Feb-18 03:30N 34°31' E 135°02'713.3
2018-Feb-18 03:00N 34°36' E 134°57'1020.0
2018-Feb-18 02:31N 34°33' E 134°45'1121.2
2018-Feb-18 02:01N 34°34' E 134°32'1121.4
2018-Feb-18 01:30N 34°35' E 134°19'1020.1
2018-Feb-18 01:00N 34°32' E 134°07'12 3.0
2018-Feb-17 20:55N 34°26' E 133°55'917.3
2018-Feb-17 20:24N 34°21' E 133°46'5016.3
2018-Feb-17 17:20N 34°04' E 132°49'720.3
2018-Feb-17 17:00N 33°59' E 132°44'1120.4
2018-Feb-17 16:28N 33°51' E 132°35'1120.7
2018-Feb-17 15:57N 33°45' E 132°24'1421.1
2018-Feb-17 15:18N 33°41' E 132°08'721.9
2018-Feb-17 14:59N 33°42' E 131°60'1022.3
2018-Feb-17 14:31N 33°44' E 131°47'1122.6
2018-Feb-17 14:00N 33°47' E 131°34'1122.1
2018-Feb-17 13:31N 33°49' E 131°21'1121.2
2018-Feb-17 13:00N 33°53' E 131°09'918.5
2018-Feb-17 12:30N 33°59' E 131°00'713.0
2018-Feb-17 12:01N 33°54' E 130°55'713.9
2018-Feb-17 11:30N 34°00' E 130°51'1020.3
2018-Feb-17 11:00N 34°01' E 130°39'1020.8
2018-Feb-17 10:30N 33°58' E 130°27'1020.6
2018-Feb-17 10:01N 33°50' E 130°19'1019.8
2018-Feb-17 09:31N 33°40' E 130°16'815.2
2018-Feb-17 09:00N 33°37' E 130°24'0 0.6
2018-Feb-17 08:30N 33°38' E 130°24'0 0.0
2018-Feb-17 08:00N 33°38' E 130°24'0 0.0
2018-Feb-17 07:30N 33°38' E 130°24'0 0.0
2018-Feb-17 07:00N 33°38' E 130°24'0 0.0
2018-Feb-17 06:30N 33°38' E 130°24'0 0.0
2018-Feb-17 06:00N 33°38' E 130°24'0 0.0
2018-Feb-17 05:30N 33°38' E 130°24'0 0.0
2018-Feb-17 05:00N 33°38' E 130°24'0 0.0
2018-Feb-17 04:30N 33°38' E 130°24'0 0.0
2018-Feb-17 04:00N 33°38' E 130°24'0 0.0
2018-Feb-17 03:30N 33°38' E 130°24'0 0.0
2018-Feb-17 03:00N 33°38' E 130°24'0 0.0
2018-Feb-17 02:30N 33°38' E 130°24'0 0.0
2018-Feb-17 02:00N 33°38' E 130°24'0 0.0
2018-Feb-17 01:30N 33°38' E 130°24'0 0.0
2018-Feb-17 01:00N 33°38' E 130°24'0 0.0
2018-Feb-17 00:30N 33°38' E 130°24'0 0.0
2018-Feb-17 00:00N 33°38' E 130°24'0 0.0
2018-Feb-16 23:30N 33°38' E 130°24'0 0.0
2018-Feb-16 23:00N 33°38' E 130°24'0 0.0
2018-Feb-16 22:30N 33°38' E 130°24'0 0.0
2018-Feb-16 22:00N 33°38' E 130°24'0 0.0
2018-Feb-16 21:30N 33°38' E 130°24'0 0.0
2018-Feb-16 21:00N 33°38' E 130°24'0 0.2
2018-Feb-16 20:29N 33°38' E 130°24'2 3.9
2018-Feb-16 20:01N 33°38' E 130°22'816.2
2018-Feb-16 19:30N 33°44' E 130°16'1121.8
2018-Feb-16 19:00N 33°54' E 130°22'1021.0
2018-Feb-16 18:31N 33°60' E 130°33'1020.4
2018-Feb-16 18:00N 34°03' E 130°44'816.8
2018-Feb-16 17:30N 33°58' E 130°53'3 6.9
2018-Feb-16 17:00N 33°57' E 130°56'510.8
2018-Feb-16 16:30N 33°57' E 131°03'918.2
2018-Feb-16 16:01N 33°52' E 131°12'1020.0
2018-Feb-16 15:30N 33°50' E 131°24'1020.5
2018-Feb-16 15:00N 33°48' E 131°36'918.9
2018-Feb-16 14:30N 33°43' E 131°46'1121.0
2018-Feb-16 14:00N 33°33' E 131°51'919.0
2018-Feb-16 13:31N 33°24' E 131°51'918.4
2018-Feb-16 13:00N 33°16' E 131°45'1 2.1
2018-Feb-16 12:30N 33°15' E 131°45'0 0.0
2018-Feb-16 12:01N 33°15' E 131°45'0 0.2
2018-Feb-16 11:30N 33°15' E 131°45'2 4.5
2018-Feb-16 11:01N 33°17' E 131°45'1019.7
2018-Feb-16 10:31N 33°18' E 131°57'7318.2
2018-Feb-16 06:32N 32°46' E 133°14'322.4
2018-Feb-16 06:24N 32°47' E 133°18'10521.5
2018-Feb-16 01:31N 33°26' E 135°14'7421.0
2018-Feb-15 21:58N 33°54' E 136°36'3620.7
2018-Feb-15 20:13N 34°13' E 137°14'1319.8
2018-Feb-15 19:35N 34°15' E 137°29'320.0
2018-Feb-15 19:27N 34°16' E 137°32'920.5
2018-Feb-15 19:01N 34°18' E 137°43'1020.4
2018-Feb-15 18:30N 34°20' E 137°55'1020.1
2018-Feb-15 17:59N 34°23' E 138°07'1019.5
2018-Feb-15 17:27N 34°25' E 138°20'919.1
2018-Feb-15 17:00N 34°27' E 138°30'919.0
2018-Feb-15 16:30N 34°29' E 138°41'1019.8
2018-Feb-15 16:00N 34°31' E 138°53'1020.7
2018-Feb-15 15:30N 34°37' E 139°03'1121.4
2018-Feb-15 14:59N 34°46' E 139°12'1020.5
2018-Feb-15 14:30N 34°53' E 139°20'1020.3
2018-Feb-15 14:00N 34°59' E 139°30'1121.7
2018-Feb-15 13:30N 35°05' E 139°41'918.6
2018-Feb-15 13:01N 35°13' E 139°46'713.0
2018-Feb-15 12:30N 35°19' E 139°43'817.1
2018-Feb-15 12:01N 35°27' E 139°47'917.2
2018-Feb-15 11:30N 35°35' E 139°51'3 0.4
2018-Feb-15 04:24N 35°37' E 139°48'0 0.0
2018-Feb-15 03:57N 35°37' E 139°48'0 0.0
2018-Feb-15 01:51N 35°37' E 139°48'0 0.0
2018-Feb-15 01:27N 35°37' E 139°48'0 0.0
2018-Feb-15 00:57N 35°37' E 139°48'0 0.0
2018-Feb-14 23:51N 35°37' E 139°48'0 0.0
2018-Feb-14 23:21N 35°37' E 139°48'0 0.0
2018-Feb-14 22:57N 35°37' E 139°48'0 0.0
2018-Feb-14 22:29N 35°37' E 139°48'0 0.0
2018-Feb-14 21:59N 35°37' E 139°48'0 0.0
2018-Feb-14 21:22N 35°37' E 139°48'0 0.0
2018-Feb-14 21:00N 35°37' E 139°48'0 0.0
2018-Feb-14 20:30N 35°37' E 139°48'0 0.5
2018-Feb-14 20:00N 35°37' E 139°48'612.6
2018-Feb-14 19:30N 35°32' E 139°52'917.8
2018-Feb-14 19:00N 35°24' E 139°46'612.6
2018-Feb-14 18:31N 35°18' E 139°45'713.9
2018-Feb-14 18:00N 35°11' E 139°47'918.6
2018-Feb-14 17:30N 35°03' E 139°42'1122.8
2018-Feb-14 17:00N 34°56' E 139°31'1224.5
2018-Feb-14 16:30N 34°49' E 139°19'1223.2
2018-Feb-14 16:00N 34°40' E 139°09'1223.4
2018-Feb-14 15:30N 34°33' E 138°59'1223.3
2018-Feb-14 15:00N 34°29' E 138°45'1123.1
2018-Feb-14 14:30N 34°25' E 138°32'1222.9
2018-Feb-14 13:59N 34°22' E 138°18'1122.4
2018-Feb-14 13:29N 34°19' E 138°05'3123.2
2018-Feb-14 12:09N 34°10' E 137°29'11520.1
2018-Feb-14 06:26N 33°36' E 135°17'1021.9
2018-Feb-14 06:00N 33°43' E 135°09'1121.9
2018-Feb-14 05:30N 33°51' E 135°00'1121.6
2018-Feb-14 05:00N 34°01' E 134°56'1122.1
2018-Feb-14 04:30N 34°12' E 134°58'1121.7
2018-Feb-14 04:00N 34°23' E 134°60'1121.8
2018-Feb-14 03:30N 34°33' E 135°03'714.7
2018-Feb-14 03:00N 34°35' E 134°55'1020.9
2018-Feb-14 02:30N 34°32' E 134°42'1122.0
2018-Feb-14 02:00N 34°34' E 134°29'1121.8
2018-Feb-14 01:30N 34°34' E 134°16'1020.0
2018-Feb-14 00:59N 34°32' E 134°04'9 2.4
2018-Feb-13 21:00N 34°26' E 133°55'5917.4
2018-Feb-13 17:39N 34°04' E 132°49'321.2
2018-Feb-13 17:30N 34°01' E 132°47'1020.1
2018-Feb-13 17:00N 33°54' E 132°38'1020.7
2018-Feb-13 16:30N 33°47' E 132°29'1121.1
2018-Feb-13 15:59N 33°43' E 132°17'1420.9
2018-Feb-13 15:19N 33°42' E 132°00'722.1
2018-Feb-13 15:00N 33°44' E 131°52'1122.8
2018-Feb-13 14:30N 33°46' E 131°39'1122.6
2018-Feb-13 14:00N 33°49' E 131°26'1122.5
2018-Feb-13 13:30N 33°51' E 131°13'1019.2
2018-Feb-13 13:00N 33°57' E 131°03'611.4
2018-Feb-13 12:30N 33°56' E 130°56'4 7.7
2018-Feb-13 12:01N 33°58' E 130°52'918.5
2018-Feb-13 11:31N 34°02' E 130°43'1122.2
2018-Feb-13 11:00N 33°58' E 130°30'1121.5
2018-Feb-13 10:30N 33°51' E 130°20'1021.0
2018-Feb-13 10:00N 33°42' E 130°15'815.6
2018-Feb-13 09:30N 33°37' E 130°23'1 2.0
2018-Feb-13 08:58N 33°38' E 130°24'0 0.0
2018-Feb-13 08:28N 33°38' E 130°24'0 0.0
2018-Feb-13 07:58N 33°38' E 130°24'0 0.0
2018-Feb-13 07:31N 33°38' E 130°24'0 0.0
2018-Feb-13 07:01N 33°38' E 130°24'0 0.0
2018-Feb-13 06:28N 33°38' E 130°24'0 0.0
2018-Feb-13 06:01N 33°38' E 130°24'0 0.0
2018-Feb-13 05:28N 33°38' E 130°24'0 0.0
2018-Feb-13 05:01N 33°38' E 130°24'0 0.0
2018-Feb-13 04:28N 33°38' E 130°24'0 0.0
2018-Feb-13 03:58N 33°38' E 130°24'0 0.0
2018-Feb-13 03:31N 33°38' E 130°24'  
Track history (hours):
 
Tides and Currents Weather Stations Pressure Air Temp Water Temp Dewpoint Dewpoint Depression Visibility Wind Speed Wind Dir Waves Ship Positions

Sunflower Hakata

Last reported at 2018-Feb-23 03:00 UTC. Time now 2018-Feb-23 03:12 UTC.
Position N 34°35' E 135°03'.

Length 167 m; draft 6.6 m.

Type: Cargo ship. MMSI: 431501764.

Date/timePositionNaut miles runAvg speedWind from/ knotsBaromVisibWave heightAir tempDewpointWater temp
2018-Feb-23 03:00N 34°35' E 135°03'918.6
2018-Feb-23 02:30N 34°34' E 134°52'1121.5
2018-Feb-23 02:00N 34°33' E 134°39'1122.0
2018-Feb-23 01:30N 34°35' E 134°26'1121.7
2018-Feb-23 00:59N 34°33' E 134°12'1019.1
2018-Feb-23 00:28N 34°30' E 134°01'3 0.9
2018-Feb-22 21:33N 34°31' E 133°58'0 0.0
2018-Feb-22 21:21N 34°31' E 133°58'5 9.0
2018-Feb-22 20:46N 34°26' E 133°55'518.1
2018-Feb-22 20:28N 34°23' E 133°50'1019.9
2018-Feb-22 19:58N 34°18' E 133°40'3518.3
2018-Feb-22 18:03N 34°09' E 132°58'817.5
2018-Feb-22 17:34N 34°05' E 132°49'122.4
2018-Feb-22 17:30N 34°04' E 132°49'1122.7
2018-Feb-22 17:00N 33°55' E 132°40'1222.5
2018-Feb-22 16:28N 33°48' E 132°29'1022.2
2018-Feb-22 16:01N 33°44' E 132°18'1321.9
2018-Feb-22 15:24N 33°42' E 132°02'921.8
2018-Feb-22 15:01N 33°44' E 131°52'1121.6
2018-Feb-22 14:30N 33°46' E 131°39'1121.4
2018-Feb-22 14:00N 33°48' E 131°26'1121.5
2018-Feb-22 13:30N 33°51' E 131°14'918.6
2018-Feb-22 13:00N 33°56' E 131°04'612.8
2018-Feb-22 12:31N 33°56' E 130°56'4 7.4
2018-Feb-22 12:01N 33°58' E 130°53'1019.5
2018-Feb-22 11:31N 34°02' E 130°42'1122.1
2018-Feb-22 11:01N 33°58' E 130°29'1120.8
2018-Feb-22 10:29N 33°51' E 130°19'1021.2
2018-Feb-22 10:00N 33°42' E 130°15'816.2
2018-Feb-22 09:31N 33°37' E 130°23'1 1.7
2018-Feb-22 09:00N 33°38' E 130°24'0 0.0
2018-Feb-22 08:30N 33°38' E 130°24'0 0.0
2018-Feb-22 08:00N 33°38' E 130°24'0 0.0
2018-Feb-22 07:30N 33°38' E 130°24'0 0.0
2018-Feb-22 07:00N 33°38' E 130°24'0 0.0
2018-Feb-22 06:30N 33°38' E 130°24'0 0.0
2018-Feb-22 06:00N 33°38' E 130°24'0 0.0
2018-Feb-22 05:30N 33°38' E 130°24'0 0.0
2018-Feb-22 05:00N 33°38' E 130°24'0 0.0
2018-Feb-22 04:30N 33°38' E 130°24'0 0.0
2018-Feb-22 04:00N 33°38' E 130°24'0 0.0
2018-Feb-22 03:30N 33°38' E 130°24'0 0.0
2018-Feb-22 02:57N 33°38' E 130°24'0 0.0
2018-Feb-22 02:30N 33°38' E 130°24'0 0.0
2018-Feb-22 02:00N 33°38' E 130°24'0 0.0
2018-Feb-22 01:30N 33°38' E 130°24'0 0.0
2018-Feb-22 01:00N 33°38' E 130°24'0 0.0
2018-Feb-22 00:30N 33°38' E 130°24'0 0.0
2018-Feb-22 00:00N 33°38' E 130°24'0 0.0
2018-Feb-21 23:30N 33°38' E 130°24'0 0.0
2018-Feb-21 23:00N 33°38' E 130°24'0 0.0
2018-Feb-21 22:30N 33°38' E 130°24'0 0.0
2018-Feb-21 22:00N 33°38' E 130°24'0 0.0
2018-Feb-21 21:31N 33°38' E 130°24'0 0.0
2018-Feb-21 21:00N 33°38' E 130°24'0 0.0
2018-Feb-21 20:30N 33°38' E 130°24'1 2.1
2018-Feb-21 20:00N 33°37' E 130°23'815.9
2018-Feb-21 19:30N 33°42' E 130°16'1019.9
2018-Feb-21 19:00N 33°51' E 130°20'918.7
2018-Feb-21 18:30N 33°58' E 130°28'1019.9
2018-Feb-21 18:00N 34°01' E 130°39'918.7
2018-Feb-21 17:30N 34°02' E 130°50'713.3
2018-Feb-21 17:00N 33°55' E 130°53'611.1
2018-Feb-21 16:30N 33°59' E 130°59'815.9
2018-Feb-21 16:00N 33°55' E 131°07'1019.2
2018-Feb-21 15:30N 33°51' E 131°18'1019.7
2018-Feb-21 15:00N 33°49' E 131°30'1019.7
2018-Feb-21 14:31N 33°47' E 131°41'1019.6
2018-Feb-21 14:00N 33°39' E 131°48'1020.2
2018-Feb-21 13:29N 33°30' E 131°54'1020.2
2018-Feb-21 13:00N 33°21' E 131°59'816.3
2018-Feb-21 12:30N 33°14' E 132°04'814.5
2018-Feb-21 11:59N 33°08' E 132°09'28617.0
2018-Feb-20 19:11N 34°15' E 137°44'521.0
2018-Feb-20 18:58N 34°16' E 137°49'1020.5
2018-Feb-20 18:29N 34°19' E 138°01'1019.7
2018-Feb-20 17:58N 34°22' E 138°13'818.4
2018-Feb-20 17:30N 34°24' E 138°23'918.3
2018-Feb-20 17:00N 34°26' E 138°33'1018.7
2018-Feb-20 16:28N 34°29' E 138°45'918.9
2018-Feb-20 15:59N 34°32' E 138°55'1019.3
2018-Feb-20 15:29N 34°39' E 139°04'1021.1
2018-Feb-20 14:59N 34°46' E 139°13'1121.4
2018-Feb-20 14:29N 34°53' E 139°23'1121.9
2018-Feb-20 14:01N 34°60' E 139°33'1121.3
2018-Feb-20 13:31N 35°06' E 139°43'816.7
2018-Feb-20 13:00N 35°14' E 139°46'612.8
2018-Feb-20 12:30N 35°20' E 139°43'918.3
2018-Feb-20 12:00N 35°28' E 139°48'816.5
2018-Feb-20 11:30N 35°36' E 139°50'2 1.7
2018-Feb-20 10:06N 35°37' E 139°48'0 0.0
2018-Feb-20 09:57N 35°37' E 139°48'0 0.0
2018-Feb-20 09:24N 35°37' E 139°48'0 0.0
2018-Feb-20 08:54N 35°37' E 139°48'0 0.0
2018-Feb-20 08:24N 35°37' E 139°48'0 0.0
2018-Feb-20 07:36N 35°37' E 139°48'0 0.0
2018-Feb-20 07:18N 35°37' E 139°48'0 0.0
2018-Feb-20 07:00N 35°37' E 139°48'0 0.0
2018-Feb-20 06:00N 35°37' E 139°48'0 0.0
2018-Feb-20 05:27N 35°37' E 139°48'0 0.0
2018-Feb-20 04:57N 35°37' E 139°48'0 0.0
2018-Feb-20 00:57N 35°37' E 139°48'0 0.0
2018-Feb-20 00:30N 35°37' E 139°48'0 0.0
2018-Feb-19 23:54N 35°37' E 139°48'0 0.0
2018-Feb-19 23:30N 35°37' E 139°48'0 0.3
2018-Feb-19 23:00N 35°37' E 139°48'0 0.0
2018-Feb-19 22:24N 35°37' E 139°48'0 0.0
2018-Feb-19 22:00N 35°37' E 139°48'0 0.0
2018-Feb-19 21:24N 35°37' E 139°48'0 0.0
2018-Feb-19 20:57N 35°37' E 139°48'0 0.0
2018-Feb-19 20:30N 35°37' E 139°48'0 0.0
2018-Feb-19 20:00N 35°37' E 139°48'0 0.0
2018-Feb-19 19:27N 35°37' E 139°48'0 0.0
2018-Feb-19 19:00N 35°37' E 139°48'0 0.0
2018-Feb-19 18:30N 35°37' E 139°48'0 0.0
2018-Feb-19 17:57N 35°37' E 139°48'0 0.0
2018-Feb-19 17:30N 35°37' E 139°48'0 0.0
2018-Feb-19 16:57N 35°37' E 139°48'0 0.0
2018-Feb-19 16:27N 35°37' E 139°48'0 0.0
2018-Feb-19 16:00N 35°37' E 139°48'0 0.0
2018-Feb-19 15:30N 35°37' E 139°48'0 0.0
2018-Feb-19 15:00N 35°37' E 139°48'0 0.0
2018-Feb-19 14:30N 35°37' E 139°48'0 0.0
2018-Feb-19 13:48N 35°37' E 139°48'0 0.0
2018-Feb-19 13:27N 35°37' E 139°48'0 0.0
2018-Feb-19 13:00N 35°37' E 139°48'0 0.0
2018-Feb-19 12:18N 35°37' E 139°48'0 0.0
2018-Feb-19 12:00N 35°37' E 139°48'0 0.0
2018-Feb-19 11:30N 35°37' E 139°48'0 0.0
2018-Feb-19 10:57N 35°37' E 139°48'0 0.0
2018-Feb-19 10:27N 35°37' E 139°48'0 0.0
2018-Feb-19 10:00N 35°37' E 139°48'0 0.0
2018-Feb-19 09:30N 35°37' E 139°48'0 0.0
2018-Feb-19 09:00N 35°37' E 139°48'0 0.0
2018-Feb-19 08:24N 35°37' E 139°48'0 0.0
2018-Feb-19 08:00N 35°37' E 139°48'0 0.0
2018-Feb-19 07:15N 35°37' E 139°48'0 0.0
2018-Feb-19 07:00N 35°37' E 139°48'0 0.0
2018-Feb-19 06:18N 35°37' E 139°48'0 0.0
2018-Feb-19 05:57N 35°37' E 139°48'0 0.0
2018-Feb-19 05:30N 35°37' E 139°48'0 0.0
2018-Feb-19 05:00N 35°37' E 139°48'0 0.0
2018-Feb-19 04:30N 35°37' E 139°48'0 0.0
2018-Feb-19 03:54N 35°37' E 139°48'0 0.0
2018-Feb-19 03:24N 35°37' E 139°48'0 0.0
2018-Feb-19 03:00N 35°37' E 139°48'0 0.0
2018-Feb-19 02:30N 35°37' E 139°48'0 0.0
2018-Feb-19 01:57N 35°37' E 139°48'0 0.0
2018-Feb-19 01:27N 35°37' E 139°48'0 0.0
2018-Feb-19 01:00N 35°37' E 139°48'0 0.0
2018-Feb-19 00:27N 35°37' E 139°48'0 0.0
2018-Feb-18 23:57N 35°37' E 139°48'0 0.0
2018-Feb-18 23:30N 35°37' E 139°48'0 0.0
2018-Feb-18 23:00N 35°37' E 139°48'0 0.0
2018-Feb-18 22:30N 35°37' E 139°48'0 0.0
2018-Feb-18 22:00N 35°37' E 139°48'0 0.0
2018-Feb-18 21:30N 35°37' E 139°48'0 0.0
2018-Feb-18 21:00N 35°37' E 139°48'0 0.0
2018-Feb-18 20:31N 35°37' E 139°48'1 2.4
2018-Feb-18 20:01N 35°37' E 139°49'816.3
2018-Feb-18 19:30N 35°29' E 139°51'816.3
2018-Feb-18 19:00N 35°22' E 139°45'612.0
2018-Feb-18 18:30N 35°16' E 139°46'816.1
2018-Feb-18 18:00N 35°08' E 139°47'1020.8
2018-Feb-18 17:30N 35°00' E 139°38'1121.3
2018-Feb-18 16:58N 34°54' E 139°27'1022.3
2018-Feb-18 16:30N 34°47' E 139°17'1222.8
2018-Feb-18 15:59N 34°39' E 139°07'1122.0
2018-Feb-18 15:29N 34°32' E 138°56'1122.7
2018-Feb-18 14:59N 34°29' E 138°43'1122.5
2018-Feb-18 14:30N 34°26' E 138°31'1223.0
2018-Feb-18 14:00N 34°23' E 138°17'1122.6
2018-Feb-18 13:30N 34°21' E 138°04'3821.8
2018-Feb-18 11:46N 34°13' E 137°19'2821.2
2018-Feb-18 10:26N 34°01' E 136°48'8018.8
2018-Feb-18 06:13N 33°36' E 135°17'522.4
2018-Feb-18 06:00N 33°40' E 135°13'1122.6
2018-Feb-18 05:30N 33°48' E 135°04'1122.1
2018-Feb-18 05:00N 33°58' E 134°58'1122.6
2018-Feb-18 04:30N 34°09' E 134°58'1122.1
2018-Feb-18 04:01N 34°20' E 134°59'1121.8
2018-Feb-18 03:30N 34°31' E 135°02'713.3
2018-Feb-18 03:00N 34°36' E 134°57'1020.0
2018-Feb-18 02:31N 34°33' E 134°45'1121.2
2018-Feb-18 02:01N 34°34' E 134°32'1121.4
2018-Feb-18 01:30N 34°35' E 134°19'1020.1
2018-Feb-18 01:00N 34°32' E 134°07'12 3.0
2018-Feb-17 20:55N 34°26' E 133°55'917.3
2018-Feb-17 20:24N 34°21' E 133°46'5016.3
2018-Feb-17 17:20N 34°04' E 132°49'720.3
2018-Feb-17 17:00N 33°59' E 132°44'1120.4
2018-Feb-17 16:28N 33°51' E 132°35'1120.7
2018-Feb-17 15:57N 33°45' E 132°24'1421.1
2018-Feb-17 15:18N 33°41' E 132°08'721.9
2018-Feb-17 14:59N 33°42' E 131°60'1022.3
2018-Feb-17 14:31N 33°44' E 131°47'1122.6
2018-Feb-17 14:00N 33°47' E 131°34'1122.1
2018-Feb-17 13:31N 33°49' E 131°21'1121.2
2018-Feb-17 13:00N 33°53' E 131°09'918.5
2018-Feb-17 12:30N 33°59' E 131°00'713.0
2018-Feb-17 12:01N 33°54' E 130°55'713.9
2018-Feb-17 11:30N 34°00' E 130°51'1020.3
2018-Feb-17 11:00N 34°01' E 130°39'1020.8
2018-Feb-17 10:30N 33°58' E 130°27'1020.6
2018-Feb-17 10:01N 33°50' E 130°19'1019.8
2018-Feb-17 09:31N 33°40' E 130°16'815.2
2018-Feb-17 09:00N 33°37' E 130°24'0 0.6
2018-Feb-17 08:30N 33°38' E 130°24'0 0.0
2018-Feb-17 08:00N 33°38' E 130°24'0 0.0
2018-Feb-17 07:30N 33°38' E 130°24'0 0.0
2018-Feb-17 07:00N 33°38' E 130°24'0 0.0
2018-Feb-17 06:30N 33°38' E 130°24'0 0.0
2018-Feb-17 06:00N 33°38' E 130°24'0 0.0
2018-Feb-17 05:30N 33°38' E 130°24'0 0.0
2018-Feb-17 05:00N 33°38' E 130°24'0 0.0
2018-Feb-17 04:30N 33°38' E 130°24'0 0.0
2018-Feb-17 04:00N 33°38' E 130°24'0 0.0
2018-Feb-17 03:30N 33°38' E 130°24'0 0.0
2018-Feb-17 03:00N 33°38' E 130°24'0 0.0
2018-Feb-17 02:30N 33°38' E 130°24'0 0.0
2018-Feb-17 02:00N 33°38' E 130°24'0 0.0
2018-Feb-17 01:30N 33°38' E 130°24'0 0.0
2018-Feb-17 01:00N 33°38' E 130°24'0 0.0
2018-Feb-17 00:30N 33°38' E 130°24'0 0.0
2018-Feb-17 00:00N 33°38' E 130°24'0 0.0
2018-Feb-16 23:30N 33°38' E 130°24'0 0.0
2018-Feb-16 23:00N 33°38' E 130°24'0 0.0
2018-Feb-16 22:30N 33°38' E 130°24'0 0.0
2018-Feb-16 22:00N 33°38' E 130°24'0 0.0
2018-Feb-16 21:30N 33°38' E 130°24'0 0.0
2018-Feb-16 21:00N 33°38' E 130°24'0 0.2
2018-Feb-16 20:29N 33°38' E 130°24'2 3.9
2018-Feb-16 20:01N 33°38' E 130°22'816.2
2018-Feb-16 19:30N 33°44' E 130°16'1121.8
2018-Feb-16 19:00N 33°54' E 130°22'1021.0
2018-Feb-16 18:31N 33°60' E 130°33'1020.4
2018-Feb-16 18:00N 34°03' E 130°44'816.8
2018-Feb-16 17:30N 33°58' E 130°53'3 6.9
2018-Feb-16 17:00N 33°57' E 130°56'510.8
2018-Feb-16 16:30N 33°57' E 131°03'918.2
2018-Feb-16 16:01N 33°52' E 131°12'1020.0
2018-Feb-16 15:30N 33°50' E 131°24'1020.5
2018-Feb-16 15:00N 33°48' E 131°36'918.9
2018-Feb-16 14:30N 33°43' E 131°46'1121.0
2018-Feb-16 14:00N 33°33' E 131°51'919.0
2018-Feb-16 13:31N 33°24' E 131°51'918.4
2018-Feb-16 13:00N 33°16' E 131°45'1 2.1
2018-Feb-16 12:30N 33°15' E 131°45'0 0.0
2018-Feb-16 12:01N 33°15' E 131°45'0 0.2
2018-Feb-16 11:30N 33°15' E 131°45'2 4.5
2018-Feb-16 11:01N 33°17' E 131°45'1019.7
2018-Feb-16 10:31N 33°18' E 131°57'7318.2
2018-Feb-16 06:32N 32°46' E 133°14'322.4
2018-Feb-16 06:24N 32°47' E 133°18'10521.5
2018-Feb-16 01:31N 33°26' E 135°14'7421.0
2018-Feb-15 21:58N 33°54' E 136°36'3620.7
2018-Feb-15 20:13N 34°13' E 137°14'1319.8
2018-Feb-15 19:35N 34°15' E 137°29'320.0
2018-Feb-15 19:27N 34°16' E 137°32'920.5
2018-Feb-15 19:01N 34°18' E 137°43'1020.4
2018-Feb-15 18:30N 34°20' E 137°55'1020.1
2018-Feb-15 17:59N 34°23' E 138°07'1019.5
2018-Feb-15 17:27N 34°25' E 138°20'919.1
2018-Feb-15 17:00N 34°27' E 138°30'919.0
2018-Feb-15 16:30N 34°29' E 138°41'1019.8
2018-Feb-15 16:00N 34°31' E 138°53'1020.7
2018-Feb-15 15:30N 34°37' E 139°03'1121.4
2018-Feb-15 14:59N 34°46' E 139°12'1020.5
2018-Feb-15 14:30N 34°53' E 139°20'1020.3
2018-Feb-15 14:00N 34°59' E 139°30'1121.7
2018-Feb-15 13:30N 35°05' E 139°41'918.6
2018-Feb-15 13:01N 35°13' E 139°46'713.0
2018-Feb-15 12:30N 35°19' E 139°43'817.1
2018-Feb-15 12:01N 35°27' E 139°47'917.2
2018-Feb-15 11:30N 35°35' E 139°51'3 0.4
2018-Feb-15 04:24N 35°37' E 139°48'0 0.0
2018-Feb-15 03:57N 35°37' E 139°48'0 0.0
2018-Feb-15 01:51N 35°37' E 139°48'0 0.0
2018-Feb-15 01:27N 35°37' E 139°48'0 0.0
2018-Feb-15 00:57N 35°37' E 139°48'0 0.0
2018-Feb-14 23:51N 35°37' E 139°48'0 0.0
2018-Feb-14 23:21N 35°37' E 139°48'0 0.0
2018-Feb-14 22:57N 35°37' E 139°48'0 0.0
2018-Feb-14 22:29N 35°37' E 139°48'0 0.0
2018-Feb-14 21:59N 35°37' E 139°48'0 0.0
2018-Feb-14 21:22N 35°37' E 139°48'0 0.0
2018-Feb-14 21:00N 35°37' E 139°48'0 0.0
2018-Feb-14 20:30N 35°37' E 139°48'0 0.5
2018-Feb-14 20:00N 35°37' E 139°48'612.6
2018-Feb-14 19:30N 35°32' E 139°52'917.8
2018-Feb-14 19:00N 35°24' E 139°46'612.6
2018-Feb-14 18:31N 35°18' E 139°45'713.9
2018-Feb-14 18:00N 35°11' E 139°47'918.6
2018-Feb-14 17:30N 35°03' E 139°42'1122.8
2018-Feb-14 17:00N 34°56' E 139°31'1224.5
2018-Feb-14 16:30N 34°49' E 139°19'1223.2
2018-Feb-14 16:00N 34°40' E 139°09'1223.4
2018-Feb-14 15:30N 34°33' E 138°59'1223.3
2018-Feb-14 15:00N 34°29' E 138°45'1123.1
2018-Feb-14 14:30N 34°25' E 138°32'1222.9
2018-Feb-14 13:59N 34°22' E 138°18'1122.4
2018-Feb-14 13:29N 34°19' E 138°05'3123.2
2018-Feb-14 12:09N 34°10' E 137°29'11520.1
2018-Feb-14 06:26N 33°36' E 135°17'1021.9
2018-Feb-14 06:00N 33°43' E 135°09'1121.9
2018-Feb-14 05:30N 33°51' E 135°00'1121.6
2018-Feb-14 05:00N 34°01' E 134°56'1122.1
2018-Feb-14 04:30N 34°12' E 134°58'1121.7
2018-Feb-14 04:00N 34°23' E 134°60'1121.8
2018-Feb-14 03:30N 34°33' E 135°03'714.7
2018-Feb-14 03:00N 34°35' E 134°55'1020.9
2018-Feb-14 02:30N 34°32' E 134°42'1122.0
2018-Feb-14 02:00N 34°34' E 134°29'1121.8
2018-Feb-14 01:30N 34°34' E 134°16'1020.0
2018-Feb-14 00:59N 34°32' E 134°04'9 2.4
2018-Feb-13 21:00N 34°26' E 133°55'5917.4
2018-Feb-13 17:39N 34°04' E 132°49'321.2
2018-Feb-13 17:30N 34°01' E 132°47'1020.1
2018-Feb-13 17:00N 33°54' E 132°38'1020.7
2018-Feb-13 16:30N 33°47' E 132°29'1121.1
2018-Feb-13 15:59N 33°43' E 132°17'1420.9
2018-Feb-13 15:19N 33°42' E 132°00'722.1
2018-Feb-13 15:00N 33°44' E 131°52'1122.8
2018-Feb-13 14:30N 33°46' E 131°39'1122.6
2018-Feb-13 14:00N 33°49' E 131°26'1122.5
2018-Feb-13 13:30N 33°51' E 131°13'1019.2
2018-Feb-13 13:00N 33°57' E 131°03'611.4
2018-Feb-13 12:30N 33°56' E 130°56'4 7.7
2018-Feb-13 12:01N 33°58' E 130°52'918.5
2018-Feb-13 11:31N 34°02' E 130°43'1122.2
2018-Feb-13 11:00N 33°58' E 130°30'1121.5
2018-Feb-13 10:30N 33°51' E 130°20'1021.0
2018-Feb-13 10:00N 33°42' E 130°15'815.6
2018-Feb-13 09:30N 33°37' E 130°23'1 2.0
2018-Feb-13 08:58N 33°38' E 130°24'0 0.0
2018-Feb-13 08:28N 33°38' E 130°24'0 0.0
2018-Feb-13 07:58N 33°38' E 130°24'0 0.0
2018-Feb-13 07:31N 33°38' E 130°24'0 0.0
2018-Feb-13 07:01N 33°38' E 130°24'0 0.0
2018-Feb-13 06:28N 33°38' E 130°24'0 0.0
2018-Feb-13 06:01N 33°38' E 130°24'0 0.0
2018-Feb-13 05:28N 33°38' E 130°24'0 0.0
2018-Feb-13 05:01N 33°38' E 130°24'0 0.0
2018-Feb-13 04:28N 33°38' E 130°24'0 0.0
2018-Feb-13 03:58N 33°38' E 130°24'0 0.0
2018-Feb-13 03:31N 33°38' E 130°24'  

Dump ship's entire track history